Latest Coastal Weather Observations for Ballina

IDN60701

Issued at 2:25 am EST Thursday 21 August 2014 (issued every 10 minutes, with the page automatically refreshed every 10 minutes)

About coastal observations | Map of coastal stations | Coastal observations for NSW | Marine services | Other Formats
Station Details ID: 058198 Name: BALLINA AIRPORT AWS Lat: -28.84 Lon: 153.56 Height: 1.3 m
Data from the previous 72 hours. | See also: Recent months at Ballina
Date/Time
EST
Temp

°C
Wind Pressure Rain
since 9am
mm
Weather Cloud Vis
km
Sea
Height
m
Swell
Dir
 
Speed
knots
Gust
knots
hPa Trend Height
m
Period
s
Dir
21/02:00am 13.8 WSW 9 13 1022.8 - 3.0 - Partly cloudy 10 - - - -
21/01:46am 13.8 WSW 9 12 1023.0 - 3.0 - Partly cloudy 10 - - - -
21/01:42am 13.8 WSW 9 12 1023.0 - 3.0 - Partly cloudy 10 - - - -
21/01:30am 14.0 SW 8 12 1023.2 - 3.0 - Partly cloudy 5 - - - -
21/01:28am 14.0 SW 8 12 1023.3 - 2.8 - Partly cloudy 5 - - - -
21/01:09am 14.9 S 9 16 1023.4 - 0.6 - Partly cloudy 5 - - - -
21/01:00am 15.1 WSW 10 14 1023.1 - 0.0 - Partly cloudy 10 - - - -
21/12:30am 15.6 S 13 19 1023.2 - 0.0 - Partly cloudy 10 - - - -
21/12:00am 16.3 S 16 25 1023.1 - 0.0 - Cloudy 10 - - - -
 
Date/Time
EST
Temp

°C
Wind Pressure Rain
since 9am
mm
Weather Cloud Vis
km
Sea
Height
m
Swell
Dir
 
Speed
knots
Gust
knots
hPa Trend Height
m
Period
s
Dir
20/11:30pm 16.5 S 15 23 1022.9 - 0.0 - Partly cloudy 10 - - - -
20/11:00pm 16.6 S 12 16 1023.1 - 0.0 - Partly cloudy 10 - - - -
20/10:30pm 16.1 S 16 22 1023.1 - 0.0 - Partly cloudy 10 - - - -
20/10:00pm 17.1 S 14 22 1023.0 - 0.0 - Partly cloudy 10 - - - -
20/09:30pm 16.9 S 13 20 1023.2 - 0.0 - Partly cloudy 10 - - - -
20/09:00pm 17.5 S 15 23 1023.0 - 0.0 - Cloudy 10 - - - -
20/08:30pm 17.2 S 12 17 1023.0 - 0.0 - Partly cloudy 10 - - - -
20/08:00pm 17.1 S 16 24 1022.5 - 0.0 - Partly cloudy 10 - - - -
20/07:30pm 17.4 S 17 28 1022.2 - 0.0 - Partly cloudy 10 - - - -
20/07:18pm 17.4 S 16 26 1022.0 - 0.0 - Partly cloudy 10 - - - -
20/07:00pm 17.1 S 13 23 1021.9 - 0.0 - Partly cloudy 10 - - - -
20/06:55pm 16.9 S 16 26 1021.9 - 0.0 - Partly cloudy 10 - - - -
20/06:30pm 17.0 S 16 23 1021.6 - 0.0 - Partly cloudy 10 - - - -
20/06:00pm 17.5 S 16 24 1021.3 - 0.0 - Partly cloudy 10 - - - -
20/05:30pm 17.6 S 14 21 1020.9 - 0.0 - Partly cloudy 10 - - - -
20/05:00pm 17.8 S 16 24 1020.7 - 0.0 - Partly cloudy 10 - - - -
20/04:30pm 18.3 S 13 20 1020.5 - 0.0 - Partly cloudy 10 - - - -
20/04:12pm 18.5 S 15 25 1020.2 - 0.0 - Partly cloudy 10 - - - -
20/04:00pm 18.5 S 15 22 1020.1 - 0.0 - Partly cloudy 10 - - - -
20/03:30pm 19.0 S 16 24 1019.9 - 0.0 - Partly cloudy 10 - - - -
20/03:00pm 19.1 S 16 21 1019.6 - 0.0 - Mostly cloudy 10 - - - -
20/02:30pm 18.8 S 15 23 1019.5 - 0.0 - Partly cloudy 10 - - - -
20/02:24pm 19.0 S 16 26 1019.6 - 0.0 - Partly cloudy 10 - - - -
20/02:00pm 19.1 S 17 25 1019.7 - 0.0 - Partly cloudy 10 - - - -
20/01:51pm 19.1 S 17 27 1019.6 - 0.0 - Partly cloudy 10 - - - -
20/01:30pm 19.6 S 17 24 1019.6 - 0.0 - Partly cloudy 10 - - - -
20/01:00pm 19.0 S 19 26 1019.6 - 0.0 - Partly cloudy 10 - - - -
20/12:47pm 18.9 S 16 26 1019.6 - 0.0 - Partly cloudy 10 - - - -
20/12:30pm 18.9 S 18 27 1019.9 - 0.0 - Partly cloudy 10 - - - -
20/12:00pm 18.5 SSW 14 21 1020.3 - 0.0 - Cloudy 10 - - - -
20/11:30am 17.7 SSW 17 26 1020.6 - 0.0 - Partly cloudy 10 - - - -
20/11:18am 17.7 SSW 15 26 1020.7 - 0.0 - Partly cloudy 10 - - - -
20/11:00am 17.9 SSW 12 19 1020.9 - 0.0 - Partly cloudy 10 - - - -
20/10:30am 17.8 SSW 14 21 1021.0 - 0.0 - Partly cloudy 10 - - - -
20/10:00am 17.5 SW 11 15 1020.9 - 0.0 - Partly cloudy 10 - - - -
20/09:30am 17.3 SW 13 22 1020.7 - 0.0 - Partly cloudy 10 - - - -
20/09:00am 16.5 SW 13 21 1020.5 - 0.0 - Mostly cloudy 10 - - - -
20/08:30am 16.6 SW 12 19 1020.3 - 0.0 - Partly cloudy 10 - - - -
20/08:00am 16.1 SW 9 13 1020.1 - 0.0 - Partly cloudy 10 - - - -
20/07:30am 15.0 WSW 9 11 1019.9 - 0.0 - Partly cloudy 10 - - - -
20/07:00am 14.2 WSW 8 10 1019.6 - 0.0 - Partly cloudy 10 - - - -
20/06:30am 13.6 WSW 8 11 1019.3 - 0.0 - Cloudy 10 - - - -
20/06:00am 13.5 W 9 11 1018.9 - 0.0 - Cloudy 10 - - - -
20/05:30am 14.0 WSW 9 13 1018.4 - 0.0 - Partly cloudy 10 - - - -
20/05:00am 14.5 WSW 9 12 1018.1 - 0.0 - Cloudy 10 - - - -
20/04:30am 13.9 WSW 9 12 1017.6 - 0.0 - Partly cloudy 10 - - - -
20/04:00am 14.5 WSW 9 13 1017.4 - 0.0 - Cloudy 10 - - - -
20/03:30am 14.5 WSW 9 13 1017.3 - 0.0 - Cloudy 10 - - - -
20/03:00am 13.6 WSW 8 11 1017.1 - 0.0 - Cloudy 10 - - - -
20/02:30am 12.4 W 7 8 1017.1 - 0.0 - Cloudy 10 - - - -
20/02:00am 11.2 W 7 9 1017.0 - 0.0 - Partly cloudy 10 - - - -
20/01:30am 12.0 WSW 7 7 1017.0 - 0.0 - - 10 - - - -
20/01:00am 12.0 W 7 9 1017.0 - 0.0 - - 10 - - - -
20/12:30am 11.7 W 6 7 1016.8 - 0.0 - - 10 - - - -
20/12:00am 11.6 W 6 7 1016.7 - 0.0 - - 10 - - - -
 
Date/Time
EST
Temp

°C
Wind Pressure Rain
since 9am
mm
Weather Cloud Vis
km
Sea
Height
m
Swell
Dir
 
Speed
knots
Gust
knots
hPa Trend Height
m
Period
s
Dir
19/11:30pm 11.6 W 5 7 1016.6 - 0.0 - - 10 - - - -
19/11:00pm 11.6 W 6 7 1016.6 - 0.0 - Partly cloudy 10 - - - -
19/10:30pm 12.8 WSW 6 7 1016.3 - 0.0 - - 10 - - - -
19/10:00pm 12.6 W 5 6 1016.2 - 0.0 - - 10 - - - -
19/09:30pm 12.5 W 6 7 1016.2 - 0.0 - - 10 - - - -
19/09:00pm 12.8 W 6 8 1016.0 - 0.0 - - 10 - - - -
19/08:30pm 13.5 WSW 5 6 1015.8 - 0.0 - - 10 - - - -
19/08:00pm 14.1 W 7 8 1015.7 - 0.0 - Partly cloudy 10 - - - -
19/07:30pm 14.9 W 8 10 1015.4 - 0.0 - Partly cloudy 10 - - - -
19/07:00pm 15.8 W 7 8 1015.2 - 0.0 - Cloudy 10 - - - -
19/06:30pm 16.2 W 6 7 1014.6 - 0.0 - Partly cloudy 10 - - - -
19/06:00pm 17.5 SW 6 8 1014.1 - 0.0 - Cloudy 10 - - - -
19/05:30pm 17.8 SW 7 10 1013.8 - 0.0 - Cloudy 10 - - - -
19/05:00pm 18.3 SSW 9 14 1013.0 - 0.0 - Partly cloudy 10 - - - -
19/04:30pm 18.7 S 11 15 1012.4 - 0.0 - Partly cloudy 10 - - - -
19/04:00pm 19.1 S 11 16 1011.9 - 0.0 - Partly cloudy 10 - - - -
19/03:30pm 19.8 S 15 19 1011.4 - 0.0 - Partly cloudy 10 - - - -
19/03:00pm 20.5 SE 6 7 1010.7 - 0.0 - Mostly cloudy 10 - - - -
19/02:30pm 20.3 SE 7 9 1010.5 - 0.0 - Partly cloudy 10 - - - -
19/02:00pm 20.9 SE 6 9 1010.5 - 0.0 - Cloudy 10 - - - -
19/01:30pm 21.2 SE 8 10 1010.5 - 0.0 - Partly cloudy 10 - - - -
19/01:00pm 22.3 W 8 12 1010.5 - 0.0 - Partly cloudy 10 - - - -
19/12:30pm 21.8 WSW 11 12 1010.8 - 0.0 - Partly cloudy 10 - - - -
19/12:00pm 21.3 WSW 10 18 1011.3 - 0.0 - - 10 - - - -
19/11:30am 21.3 WSW 12 19 1011.6 - 0.0 - - 10 - - - -
19/11:00am 21.0 WSW 13 18 1011.8 - 0.0 - - 10 - - - -
19/10:30am 20.2 W 15 23 1012.0 - 0.0 - - 10 - - - -
19/10:00am 19.9 W 15 20 1012.1 - 0.0 - - 10 - - - -
19/09:30am 19.1 W 14 23 1012.2 - 0.0 - - 10 - - - -
19/09:00am 18.2 W 15 20 1012.1 - 0.0 - - 10 - - - -
19/08:30am 17.7 W 13 18 1012.0 - 0.0 - - 10 - - - -
19/08:00am 16.9 W 13 18 1011.7 - 0.0 - - 10 - - - -
19/07:30am 16.2 WNW 13 17 1011.5 - 0.0 - - 10 - - - -
19/07:00am 15.5 W 12 17 1011.3 - 0.0 - - 10 - - - -
19/06:30am 15.0 W 11 16 1010.9 - 0.0 - - 10 - - - -
19/06:00am 14.9 W 13 22 1010.4 - 0.0 - - 10 - - - -
19/05:30am 14.7 W 13 19 1009.9 - 0.0 - - 10 - - - -
19/05:00am 14.7 W 13 19 1009.6 - 0.0 - - 10 - - - -
19/04:30am 14.9 W 15 20 1009.3 - 0.0 - - 10 - - - -
19/04:00am 14.8 W 13 18 1009.1 - 0.0 - - 10 - - - -
19/03:30am 14.5 W 12 16 1009.0 - 0.0 - - 10 - - - -
19/03:00am 14.7 WNW 12 16 1009.2 - 0.0 - - 10 - - - -
19/02:30am 14.4 WNW 11 14 1009.4 - 0.0 - - 10 - - - -
19/02:00am 14.7 WNW 10 17 1009.8 - 0.0 - - 10 - - - -
19/01:30am 14.4 W 11 17 1010.0 - 0.0 - - 10 - - - -
19/01:00am 14.5 WNW 12 16 1010.0 - 0.0 - - 10 - - - -
19/12:30am 14.8 WNW 12 18 1010.4 - 0.0 - - 10 - - - -
19/12:00am 14.8 WNW 14 23 1010.3 - 0.0 - - 10 - - - -
 
Date/Time
EST
Temp

°C
Wind Pressure Rain
since 9am
mm
Weather Cloud Vis
km
Sea
Height
m
Swell
Dir
 
Speed
knots
Gust
knots
hPa Trend Height
m
Period
s
Dir
18/11:30pm 14.6 WNW 13 17 1010.4 - 0.0 - - 10 - - - -
18/11:00pm 14.6 WNW 11 15 1010.6 - 0.0 - - 10 - - - -
18/10:30pm 15.0 W 13 18 1010.6 - 0.0 - - 10 - - - -
18/10:00pm 14.9 W 14 19 1010.5 - 0.0 - - 10 - - - -
18/09:30pm 15.4 W 16 24 1010.3 - 0.0 - - 10 - - - -
18/09:00pm 15.5 W 16 27 1010.0 - 0.0 - - 10 - - - -
18/08:58pm 15.5 W 15 27 1009.9 - 0.0 - - 10 - - - -
18/08:30pm 15.4 WNW 13 19 1009.6 - 0.0 - - 10 - - - -
18/08:00pm 15.4 WNW 14 18 1009.4 - 0.0 - - 10 - - - -
18/07:30pm 15.5 W 13 20 1009.1 - 0.0 - - 10 - - - -
18/07:00pm 15.5 WNW 10 14 1008.7 - 0.0 - - 10 - - - -
18/06:30pm 15.7 WNW 10 15 1008.2 - 0.0 - - 10 - - - -
18/06:00pm 16.4 WNW 9 17 1007.7 - 0.0 - - 10 - - - -
18/05:30pm 16.5 WNW 11 16 1007.4 - 0.0 - Partly cloudy 10 - - - -
18/05:00pm 17.3 WNW 10 20 1007.3 - 0.0 - Partly cloudy 10 - - - -
18/04:30pm 17.9 WNW 14 22 1006.7 - 0.0 - Partly cloudy 10 - - - -
18/04:00pm 18.5 WNW 16 22 1006.3 - 0.0 - Partly cloudy 10 - - - -
18/03:46pm 17.9 WNW 15 25 1006.0 - 0.0 - Partly cloudy 10 - - - -
18/03:30pm 18.1 WNW 17 24 1006.0 - 0.0 - Partly cloudy 10 - - - -
18/03:00pm 19.1 WNW 15 21 1005.8 - 0.0 - Mostly clear 10 - - - -
18/02:30pm 19.7 WNW 16 24 1005.9 - 0.0 - Partly cloudy 10 - - - -
18/02:02pm 19.3 WNW 15 27 1006.0 - 0.0 - Partly cloudy 10 - - - -
18/02:00pm 19.6 WNW 14 25 1006.0 - 0.0 - Partly cloudy 10 - - - -
18/01:36pm 19.3 WNW 15 25 1005.9 - 0.0 - Partly cloudy 10 - - - -
18/01:30pm 19.6 W 17 24 1006.1 - 0.0 - Partly cloudy 10 - - - -
18/01:00pm 19.0 WNW 18 27 1006.2 - 0.0 - Partly cloudy 10 - - - -
18/12:30pm 18.8 WNW 18 29 1006.5 - 0.0 - Partly cloudy 10 - - - -
18/12:00pm 18.4 WNW 16 26 1007.1 - 0.0 - Partly cloudy 10 - - - -
18/11:30am 18.6 NW 16 28 1007.6 - 0.0 - Partly cloudy 10 - - - -
18/11:09am 18.2 WNW 16 27 1007.8 - 0.0 - Partly cloudy 10 - - - -
18/11:00am 18.1 W 15 21 1007.9 - 0.0 - - 10 - - - -
18/10:33am 17.1 WNW 17 27 1008.2 - 0.0 - - 10 - - - -
18/10:30am 17.1 WNW 18 27 1008.2 - 0.0 - Partly cloudy 10 - - - -
18/10:25am 17.0 WNW 15 26 1008.3 - 0.0 - Partly cloudy 10 - - - -
18/10:00am 16.7 NW 14 21 1008.4 - 0.0 - - 10 - - - -
18/09:34am 16.4 WNW 16 26 1008.7 - 0.0 - - 10 - - - -
18/09:30am 15.9 WNW 17 26 1008.5 - 0.0 - - 10 - - - -
18/09:06am 15.7 WNW 16 27 1008.8 - 0.0 - - 10 - - - -
18/09:00am 15.6 WNW 18 25 1008.9 - 0.0 - - 10 - - - -
18/08:30am 15.6 WNW 11 17 1009.0 - 0.0 - - 10 - - - -
18/08:00am 15.0 WNW 10 13 1009.1 - 0.0 - - 10 - - - -
18/07:30am 13.9 WNW 9 14 1008.9 - 0.0 - - 10 - - - -
18/07:00am 12.6 NNW 7 10 1008.5 - 0.0 - - 10 - - - -
18/06:30am 10.4 N 5 7 1008.5 - 0.0 - Partly cloudy 10 - - - -
18/06:00am 9.8 N 6 8 1008.1 - 0.0 - Mostly clear 10 - - - -
18/05:30am 9.2 N 5 6 1008.0 - 0.0 - - 10 - - - -
18/05:00am 9.5 N 6 8 1007.9 - 0.0 - - 10 - - - -
18/04:30am 9.1 N 5 5 1007.8 - 0.0 - - 10 - - - -
18/04:00am 7.2 NNE 3 5 1007.9 - 0.0 - - 10 - - - -
18/03:30am 7.6 CALM 0 4 1008.2 - 0.0 - - 10 - - - -
18/03:00am 7.8 N 3 4 1008.2 - 0.0 - - 10 - - - -
18/02:30am 7.6 NNE 3 3 1008.3 - 0.0 - - 10 - - - -

Other Formats:

Comma delimited format used in spreadsheet applications
http://www.bom.gov.au/fwo/IDN60701/IDN60701.94596.axf

JavaScript Object Notation format (JSON) in row-major order
http://www.bom.gov.au/fwo/IDN60701/IDN60701.94596.json